Time;durP1;ratioP1;P1;durP2;ratioP2;P2;SDS_P1;SDS_P2;PMS_P1;PMS_P2;Temp;Humidity;BMP_temperature;BMP_pressure;BME280_temperature;BME280_humidity;BME280_pressure;Samples;Min_cycle;Max_cycle;Signal;HPM_P1;HPM_P2
2021/05/03 00:01:14;;;;;;;0.85;0.50;;;15.90;72.90;;;;;;4993976;28;20261;-64
2021/05/03 00:03:39;;;;;;;0.52;0.45;;;15.90;73.60;;;;;;4993660;28;20054;-64
2021/05/03 00:06:05;;;;;;;0.85;0.63;;;15.90;75.00;;;;;;4994046;28;20027;-64
2021/05/03 00:08:31;;;;;;;1.48;0.40;;;16.10;73.30;;;;;;4993984;28;20129;-64
2021/05/03 00:10:56;;;;;;;4.60;0.80;;;16.50;72.60;;;;;;4993827;28;20436;-64
2021/05/03 00:13:22;;;;;;;1.00;0.50;;;15.90;73.30;;;;;;4993706;28;20034;-64
2021/05/03 00:15:48;;;;;;;0.65;0.65;;;15.70;72.20;;;;;;4993643;28;20023;-65
2021/05/03 00:18:14;;;;;;;0.70;0.45;;;15.80;71.90;;;;;;4976208;28;20061;-65
2021/05/03 00:20:40;;;;;;;0.38;0.38;;;16.30;71.70;;;;;;4992911;28;20019;-65
2021/05/03 00:23:06;;;;;;;0.90;0.70;;;15.80;72.00;;;;;;4993750;28;20034;-65
2021/05/03 00:25:31;;;;;;;0.65;0.40;;;16.00;72.60;;;;;;4993448;28;20479;-65
2021/05/03 00:27:58;;;;;;;0.73;0.40;;;16.10;73.50;;;;;;4992125;28;20061;-65
2021/05/03 00:30:24;;;;;;;1.10;0.30;;;15.70;72.10;;;;;;4975964;28;20031;-64
2021/05/03 00:32:49;;;;;;;0.88;0.47;;;15.60;71.20;;;;;;4993402;28;20023;-64
2021/05/03 00:35:18;;;;;;;0.82;0.40;;;15.90;72.60;;;;;;4993331;28;20106;-64
2021/05/03 00:37:43;;;;;;;0.68;0.57;;;15.80;68.50;;;;;;4975883;28;20074;-64
2021/05/03 00:40:10;;;;;;;0.60;0.60;;;16.20;71.70;;;;;;4992074;28;20467;-64
2021/05/03 00:42:36;;;;;;;0.70;0.40;;;15.50;71.30;;;;;;4992119;28;20030;-65
2021/05/03 00:45:11;;;;;;;1.00;0.43;;;15.70;72.20;;;;;;4993269;28;20452;-64
2021/05/03 00:47:37;;;;;;;0.50;0.50;;;16.20;72.20;;;;;;4975741;28;20077;-64
2021/05/03 00:50:07;;;;;;;1.00;0.68;;;16.10;72.50;;;;;;4993238;28;20353;-64
2021/05/03 00:52:33;;;;;;;0.50;0.35;;;15.60;71.30;;;;;;4991947;28;20030;-64
2021/05/03 00:54:59;;;;;;;0.80;0.50;;;15.70;72.10;;;;;;4993183;28;20033;-64
2021/05/03 00:57:25;;;;;;;1.02;0.60;;;15.90;71.90;;;;;;4993243;28;20053;-64
2021/05/03 00:59:51;;;;;;;0.45;0.40;;;16.00;71.90;;;;;;4993387;28;20033;-64
2021/05/03 01:02:17;;;;;;;0.68;0.60;;;16.30;72.30;;;;;;4993009;28;20029;-64
2021/05/03 01:04:43;;;;;;;0.70;0.47;;;15.90;72.60;;;;;;4992962;28;20128;-64
2021/05/03 01:07:08;;;;;;;1.98;0.60;;;16.00;73.10;;;;;;4993313;28;20057;-64
2021/05/03 01:09:34;;;;;;;1.50;0.68;;;16.00;72.10;;;;;;4992991;28;20031;-64
2021/05/03 01:12:00;;;;;;;0.90;0.50;;;15.80;71.70;;;;;;4993298;28;20026;-64
2021/05/03 01:14:26;;;;;;;1.20;0.50;;;15.80;71.50;;;;;;4993052;28;20383;-64
2021/05/03 01:16:51;;;;;;;0.45;0.45;;;15.80;72.10;;;;;;4993007;28;20023;-64
2021/05/03 01:19:20;;;;;;;0.50;0.45;;;15.80;71.80;;;;;;4993042;28;20022;-64
2021/05/03 01:21:46;;;;;;;0.88;0.52;;;15.90;72.00;;;;;;4992896;28;20026;-64
2021/05/03 01:24:12;;;;;;;1.05;0.70;;;15.70;72.30;;;;;;4992903;28;20101;-63
2021/05/03 01:26:38;;;;;;;1.95;0.77;;;15.60;72.50;;;;;;4991654;28;20557;-64
2021/05/03 01:29:03;;;;;;;0.73;0.47;;;15.90;73.80;;;;;;4993377;28;20086;-63
2021/05/03 01:31:29;;;;;;;0.60;0.30;;;15.60;73.30;;;;;;4993050;28;20022;-64
2021/05/03 01:33:55;;;;;;;2.30;0.60;;;16.10;73.00;;;;;;4996192;28;20026;-64
2021/05/03 01:36:20;;;;;;;0.93;0.43;;;15.60;72.80;;;;;;4996612;28;20029;-63
2021/05/03 01:38:46;;;;;;;1.02;0.30;;;15.60;73.10;;;;;;4995369;28;20018;-64
2021/05/03 01:41:11;;;;;;;0.82;0.40;;;15.60;73.20;;;;;;4995252;28;20467;-64
2021/05/03 01:43:37;;;;;;;0.60;0.60;;;15.50;72.50;;;;;;4996510;28;20029;-64
2021/05/03 01:46:03;;;;;;;0.80;0.60;;;15.90;74.10;;;;;;4996525;28;20034;-64
2021/05/03 01:48:31;;;;;;;0.85;0.50;;;15.80;73.90;;;;;;4996326;28;20038;-64
2021/05/03 01:50:58;;;;;;;0.68;0.68;;;15.60;74.50;;;;;;4996383;28;20541;-64
2021/05/03 01:53:24;;;;;;;0.77;0.50;;;16.00;75.40;;;;;;4996293;28;20037;-64
2021/05/03 01:55:57;;;;;;;0.60;0.52;;;15.90;76.40;;;;;;4996307;28;20065;-64
2021/05/03 01:58:25;;;;;;;0.70;0.70;;;15.90;78.50;;;;;;4996203;28;20023;-64
2021/05/03 02:00:51;;;;;;;1.02;0.60;;;15.50;77.60;;;;;;4996139;28;20030;-64
2021/05/03 02:03:21;;;;;;;1.80;0.52;;;15.90;77.20;;;;;;4978504;28;20150;-64
2021/05/03 02:05:47;;;;;;;0.70;0.60;;;15.50;72.70;;;;;;4996200;28;20027;-64
2021/05/03 02:08:13;;;;;;;1.35;0.80;;;15.70;76.50;;;;;;4996224;28;20394;-64
2021/05/03 02:10:38;;;;;;;0.50;0.50;;;15.60;76.80;;;;;;4994714;28;20124;-64
2021/05/03 02:13:05;;;;;;;0.73;0.50;;;15.40;77.20;;;;;;4996231;28;20073;-64
2021/05/03 02:15:31;;;;;;;0.82;0.60;;;15.80;77.80;;;;;;4996197;28;20027;-64
2021/05/03 02:17:57;;;;;;;0.60;0.50;;;15.60;78.10;;;;;;4978402;28;20027;-63
2021/05/03 02:20:23;;;;;;;1.70;0.70;;;15.90;78.20;;;;;;4995796;28;20074;-64
2021/05/03 02:22:49;;;;;;;0.68;0.68;;;15.40;77.50;;;;;;4995740;28;20379;-63
2021/05/03 02:25:15;;;;;;;0.63;0.50;;;15.50;78.30;;;;;;4995704;28;20035;-63
2021/05/03 02:27:41;;;;;;;0.70;0.50;;;15.60;79.00;;;;;;4995625;28;20475;-64
2021/05/03 02:30:10;;;;;;;1.52;0.55;;;15.80;79.40;;;;;;4995862;28;20034;-64
2021/05/03 02:32:37;;;;;;;1.20;0.80;;;15.50;75.80;;;;;;4995910;28;20089;-63
2021/05/03 02:35:11;;;;;;;1.63;0.80;;;15.60;80.30;;;;;;4995572;28;20026;-64
2021/05/03 02:37:37;;;;;;;0.80;0.80;;;15.40;76.10;;;;;;4995662;28;20015;-64
2021/05/03 02:40:04;;;;;;;1.27;0.60;;;15.40;81.20;;;;;;4977931;28;20030;-64
2021/05/03 02:42:30;;;;;;;0.95;0.75;;;15.40;81.00;;;;;;4995366;28;20033;-64
2021/05/03 02:44:55;;;;;;;1.05;0.80;;;15.60;83.00;;;;;;4994368;28;20391;-64
2021/05/03 02:47:21;;;;;;;1.08;0.75;;;15.60;83.40;;;;;;4995330;28;20034;-64
2021/05/03 02:49:47;;;;;;;1.23;0.75;;;16.10;83.80;;;;;;4995357;28;20033;-64
2021/05/03 02:52:12;;;;;;;1.60;1.00;;;15.40;84.50;;;;;;4995342;28;20027;-63
2021/05/03 02:54:38;;;;;;;1.77;0.80;;;15.60;86.00;;;;;;4995199;28;20028;-64
2021/05/03 02:57:04;;;;;;;0.60;0.60;;;15.60;86.50;;;;;;4995540;28;20026;-63
2021/05/03 02:59:30;;;;;;;0.80;0.75;;;15.40;87.70;;;;;;4995158;28;20032;-64
2021/05/03 03:01:55;;;;;;;0.98;0.63;;;15.10;53.60;;;;;;4993792;28;20030;-63
2021/05/03 03:04:21;;;;;;;2.60;0.80;;;15.20;58.90;;;;;;4994922;28;20518;-64
2021/05/03 03:06:47;;;;;;;1.40;0.70;;;15.40;58.10;;;;;;4994991;28;20077;-64
2021/05/03 03:09:13;;;;;;;1.25;0.90;;;;;;;;;;4995031;28;20041;-64
2021/05/03 03:11:40;;;;;;;1.05;0.77;;;15.10;53.60;;;;;;4977511;28;20023;-65
2021/05/03 03:14:06;;;;;;;0.75;0.60;;;15.10;56.70;;;;;;4995027;28;20053;-63
2021/05/03 03:16:34;;;;;;;1.50;0.95;;;15.10;56.40;;;;;;4995019;28;20030;-65
2021/05/03 03:19:00;;;;;;;1.08;0.70;;;15.10;55.90;;;;;;4995015;28;20077;-64
2021/05/03 03:21:25;;;;;;;0.98;0.63;;;15.10;55.90;;;;;;4995148;28;20471;-64
2021/05/03 03:23:52;;;;;;;0.60;0.60;;;15.10;55.90;;;;;;4994834;28;20076;-64
2021/05/03 03:26:18;;;;;;;0.80;0.70;;;15.00;56.10;;;;;;4995102;28;20044;-64
2021/05/03 03:28:44;;;;;;;1.00;0.68;;;15.10;56.10;;;;;;4994624;28;20041;-64
2021/05/03 03:31:10;;;;;;;1.58;0.70;;;15.10;56.30;;;;;;4994686;28;20395;-64
2021/05/03 03:33:36;;;;;;;0.93;0.80;;;15.40;56.20;;;;;;4977239;28;20026;-63
2021/05/03 03:36:02;;;;;;;1.40;0.80;;;15.10;56.20;;;;;;4977157;28;20459;-64
2021/05/03 03:38:28;;;;;;;1.00;0.77;;;15.10;56.00;;;;;;4994614;28;20023;-64
2021/05/03 03:40:53;;;;;;;1.60;0.93;;;15.10;56.20;;;;;;4994492;28;20029;-64
2021/05/03 03:43:19;;;;;;;1.08;0.68;;;15.00;56.00;;;;;;4994444;28;20152;-64
2021/05/03 03:45:45;;;;;;;0.73;0.63;;;15.00;55.70;;;;;;4994339;28;20026;-64
2021/05/03 03:48:10;;;;;;;0.52;0.50;;;15.00;55.90;;;;;;4976820;28;20038;-64
2021/05/03 03:50:36;;;;;;;1.52;0.80;;;15.10;55.90;;;;;;4993000;28;20045;-64
2021/05/03 03:53:02;;;;;;;1.15;0.90;;;15.10;56.40;;;;;;4994340;28;20073;-64
2021/05/03 03:55:27;;;;;;;1.05;0.70;;;15.00;56.40;;;;;;4994023;28;20026;-64
2021/05/03 03:57:53;;;;;;;0.85;0.60;;;15.60;56.50;;;;;;4994239;28;20023;-65
2021/05/03 04:00:20;;;;;;;1.17;0.90;;;15.00;56.50;;;;;;4994023;28;20026;-64
2021/05/03 04:02:46;;;;;;;0.73;0.73;;;15.00;55.90;;;;;;4993600;28;20092;-63
2021/05/03 04:10:53;;;;;;;0.80;0.70;;;15.30;55.20;;;;;;4994181;28;20113;-63
2021/05/03 04:26:20;;;;;;;1.05;0.95;;;14.90;57.30;;;;;;4993484;28;20022;-64
2021/05/03 04:28:48;;;;;;;1.08;0.90;;;15.20;57.40;;;;;;4993628;28;20026;-64
2021/05/03 04:31:14;;;;;;;1.17;0.70;;;15.40;57.40;;;;;;4993689;28;20019;-65
2021/05/03 04:33:40;;;;;;;1.48;1.00;;;15.00;57.50;;;;;;4993686;28;20038;-64
2021/05/03 04:36:06;;;;;;;1.63;0.80;;;15.60;57.40;;;;;;4993423;28;20022;-64
2021/05/03 04:38:32;;;;;;;1.50;0.90;;;15.10;56.90;;;;;;4975971;28;20030;-63
2021/05/03 04:40:58;;;;;;;0.82;0.70;;;15.00;57.20;;;;;;4993343;28;20027;-63
2021/05/03 04:43:24;;;;;;;1.10;0.80;;;15.00;57.40;;;;;;4975843;28;20065;-63
2021/05/03 04:45:50;;;;;;;1.15;1.05;;;15.50;57.90;;;;;;4975845;28;20019;-63
2021/05/03 04:48:16;;;;;;;1.25;0.98;;;14.90;57.90;;;;;;4993200;28;20037;-63
2021/05/03 04:50:42;;;;;;;1.02;0.80;;;15.20;57.80;;;;;;4993262;28;20021;-63
2021/05/03 04:53:08;;;;;;;1.35;1.00;;;14.90;58.00;;;;;;4991965;28;20027;-63
2021/05/03 04:55:33;;;;;;;0.98;0.90;;;15.30;58.30;;;;;;4993145;28;20034;-63
2021/05/03 04:57:59;;;;;;;1.27;1.15;;;14.90;58.10;;;;;;4993145;28;20026;-63
2021/05/03 05:00:25;;;;;;;1.02;0.90;;;14.90;57.80;;;;;;4993013;28;20038;-63
2021/05/03 05:02:50;;;;;;;1.83;0.93;;;14.80;57.40;;;;;;4992923;28;20026;-63
2021/05/03 05:05:16;;;;;;;1.10;0.77;;;14.90;57.70;;;;;;4993240;28;20034;-63
2021/05/03 05:07:42;;;;;;;1.48;0.90;;;14.90;57.10;;;;;;4994426;28;20515;-64
2021/05/03 05:10:09;;;;;;;0.90;0.80;;;15.40;57.70;;;;;;4995890;28;20382;-63
2021/05/03 05:12:34;;;;;;;1.10;0.80;;;14.90;57.40;;;;;;4997368;28;20027;-63
2021/05/03 05:15:00;;;;;;;1.13;0.90;;;14.90;57.50;;;;;;4997342;28;20104;-64
2021/05/03 05:17:26;;;;;;;1.60;0.80;;;15.10;57.00;;;;;;4997248;28;20037;-64
2021/05/03 05:19:52;;;;;;;0.80;0.70;;;15.00;56.40;;;;;;4997315;28;20114;-64
2021/05/03 05:22:18;;;;;;;1.02;0.80;;;15.10;55.80;;;;;;4996896;28;20121;-65
2021/05/03 05:24:44;;;;;;;1.20;1.00;;;15.50;55.20;;;;;;4995623;28;20038;-65
2021/05/03 05:27:10;;;;;;;1.60;1.02;;;15.20;54.80;;;;;;4995231;28;20479;-66
2021/05/03 05:29:36;;;;;;;2.08;0.75;;;15.40;54.60;;;;;;4995662;28;20026;-65
2021/05/03 05:32:02;;;;;;;0.95;0.70;;;15.40;54.40;;;;;;4996727;28;20542;-65
2021/05/03 05:34:27;;;;;;;1.52;0.75;;;15.40;54.20;;;;;;4978932;28;20058;-65
2021/05/03 05:36:53;;;;;;;0.95;0.80;;;15.30;54.30;;;;;;4996459;28;20023;-65
2021/05/03 05:39:19;;;;;;;1.52;0.80;;;15.40;54.30;;;;;;4995398;28;20030;-65
2021/05/03 05:41:44;;;;;;;1.77;0.85;;;15.30;54.30;;;;;;4995394;28;20085;-65
2021/05/03 05:44:10;;;;;;;1.10;1.00;;;15.30;54.10;;;;;;4996835;28;20058;-65
2021/05/03 05:46:37;;;;;;;2.60;0.90;;;15.30;53.90;;;;;;4996534;28;20092;-66
2021/05/03 05:49:04;;;;;;;1.13;1.02;;;15.00;53.80;;;;;;4996597;28;20026;-62
2021/05/03 05:51:30;;;;;;;1.58;0.90;;;15.00;53.90;;;;;;4996425;28;20026;-62
2021/05/03 05:53:56;;;;;;;4.78;1.00;;;15.20;54.20;;;;;;4996315;28;20045;-63
2021/05/03 05:56:21;;;;;;;5.95;1.17;;;15.20;54.40;;;;;;4996388;28;20542;-63
2021/05/03 05:58:47;;;;;;;2.72;1.30;;;15.20;54.10;;;;;;4996393;28;20038;-63
2021/05/03 06:01:13;;;;;;;1.67;1.00;;;15.00;53.90;;;;;;4996350;28;20030;-62
2021/05/03 06:03:39;;;;;;;2.85;1.13;;;14.90;53.90;;;;;;4996008;28;20046;-64
2021/05/03 06:06:06;;;;;;;2.40;1.45;;;15.10;54.00;;;;;;4996276;28;20029;-63
2021/05/03 06:08:32;;;;;;;9.90;1.92;;;15.10;54.00;;;;;;4996096;28;20063;-63
2021/05/03 06:10:57;;;;;;;1.70;1.30;;;15.90;54.40;;;;;;4996053;28;20027;-64
2021/05/03 06:13:23;;;;;;;3.08;1.27;;;14.90;53.80;;;;;;4995912;28;20026;-63
2021/05/03 06:15:49;;;;;;;2.13;1.08;;;14.90;54.00;;;;;;4996023;28;20038;-64
2021/05/03 06:18:14;;;;;;;1.63;1.17;;;15.10;54.10;;;;;;4996074;28;20105;-64
2021/05/03 06:20:40;;;;;;;3.83;1.27;;;15.10;54.10;;;;;;4996006;28;20110;-64
2021/05/03 06:23:07;;;;;;;2.60;1.05;;;15.00;54.30;;;;;;4996192;28;20022;-65
2021/05/03 06:25:34;;;;;;;5.93;1.30;;;15.00;54.20;;;;;;4995809;28;20109;-64
2021/05/03 06:28:00;;;;;;;3.38;1.17;;;15.10;54.50;;;;;;4995832;28;20426;-64
2021/05/03 06:30:26;;;;;;;5.22;1.35;;;15.10;54.50;;;;;;4996065;28;20165;-64
2021/05/03 06:32:53;;;;;;;2.90;1.80;;;15.10;54.40;;;;;;4995698;28;20034;-64
2021/05/03 06:35:19;;;;;;;6.38;1.30;;;15.10;54.30;;;;;;4995366;28;20486;-65
2021/05/03 06:37:45;;;;;;;5.85;1.45;;;15.00;54.30;;;;;;4995334;28;20382;-64
2021/05/03 06:40:12;;;;;;;2.60;1.40;;;14.90;54.20;;;;;;4995667;28;20022;-64
2021/05/03 06:42:38;;;;;;;5.38;1.23;;;15.10;54.30;;;;;;4995795;28;20081;-65
2021/05/03 06:45:04;;;;;;;2.20;1.30;;;15.00;54.50;;;;;;4995633;28;20105;-65
2021/05/03 06:47:30;;;;;;;1.80;1.50;;;15.20;54.60;;;;;;4995328;28;20390;-64
2021/05/03 06:49:56;;;;;;;4.18;1.70;;;15.10;54.50;;;;;;4995325;28;20022;-64
2021/05/03 06:52:22;;;;;;;2.53;1.67;;;15.00;54.50;;;;;;4995669;28;20129;-64
2021/05/03 06:54:48;;;;;;;2.13;1.92;;;15.10;54.50;;;;;;4995274;28;20030;-63
2021/05/03 06:57:16;;;;;;;5.32;2.17;;;15.00;54.50;;;;;;4995132;28;20033;-63
2021/05/03 06:59:41;;;;;;;4.18;1.88;;;15.20;55.00;;;;;;4995114;28;20374;-63
2021/05/03 07:02:09;;;;;;;6.60;1.95;;;15.30;81.40;;;;;;4995012;28;20069;-63
2021/05/03 07:04:35;;;;;;;9.10;2.13;;;15.10;55.40;;;;;;4995128;28;20053;-63
2021/05/03 07:07:00;;;;;;;3.85;2.40;;;15.10;55.50;;;;;;4995346;28;20019;-63
2021/05/03 07:09:26;;;;;;;5.60;2.45;;;15.80;55.90;;;;;;4995243;28;20035;-63
2021/05/03 07:11:52;;;;;;;8.00;2.15;;;15.10;55.20;;;;;;4995300;28;20459;-63
2021/05/03 07:14:18;;;;;;;6.55;2.35;;;15.20;55.10;;;;;;4995050;28;20383;-63
2021/05/03 07:16:44;;;;;;;4.03;2.40;;;15.40;55.20;;;;;;4993733;28;20019;-63
2021/05/03 07:19:09;;;;;;;5.22;2.30;;;15.50;55.20;;;;;;4995143;28;20035;-63
2021/05/03 07:21:38;;;;;;;4.15;2.60;;;15.10;55.00;;;;;;4994741;28;20019;-64
2021/05/03 07:24:04;;;;;;;8.20;2.63;;;15.10;55.00;;;;;;4995091;28;20033;-63
2021/05/03 07:26:30;;;;;;;5.75;2.15;;;15.20;54.50;;;;;;4993715;28;20101;-63
2021/05/03 07:28:56;;;;;;;7.15;2.47;;;15.10;55.00;;;;;;4994092;28;20563;-64
2021/05/03 07:31:21;;;;;;;5.38;2.70;;;15.30;55.20;;;;;;4993887;28;20045;-64
2021/05/03 07:33:47;;;;;;;6.30;3.00;;;15.10;55.00;;;;;;4994415;28;20069;-63
2021/05/03 07:36:13;;;;;;;10.93;2.83;;;15.10;55.00;;;;;;4994096;28;20026;-63
2021/05/03 07:38:38;;;;;;;4.07;2.70;;;15.00;55.00;;;;;;4994191;28;20026;-63
2021/05/03 07:41:04;;;;;;;3.33;2.25;;;15.20;55.70;;;;;;4994388;28;20030;-63
2021/05/03 07:43:30;;;;;;;3.45;2.60;;;15.00;54.90;;;;;;4976940;28;20402;-63
2021/05/03 07:45:56;;;;;;;4.25;2.42;;;15.40;55.10;;;;;;4994306;28;20018;-63
2021/05/03 07:48:21;;;;;;;6.88;2.38;;;15.20;55.00;;;;;;4994362;28;20027;-63
2021/05/03 07:50:47;;;;;;;4.35;2.42;;;15.90;55.30;;;;;;4994195;28;20018;-63
2021/05/03 07:53:12;;;;;;;5.25;2.58;;;15.10;54.90;;;;;;4993885;28;20065;-64
2021/05/03 07:55:38;;;;;;;4.65;2.45;;;15.10;54.90;;;;;;4976526;28;20022;-64
2021/05/03 07:58:04;;;;;;;4.45;2.47;;;15.10;54.80;;;;;;4993870;28;20030;-64
2021/05/03 08:00:30;;;;;;;4.18;3.30;;;15.30;55.00;;;;;;4993836;28;20031;-64
2021/05/03 08:02:57;;;;;;;4.50;3.05;;;15.20;54.80;;;;;;4993858;28;20031;-64
2021/05/03 08:05:23;;;;;;;4.15;2.60;;;16.00;55.20;;;;;;4994044;28;20033;-64
2021/05/03 08:07:48;;;;;;;3.90;3.10;;;15.40;54.90;;;;;;4993835;28;20144;-64
2021/05/03 08:10:14;;;;;;;5.05;2.90;;;15.50;54.90;;;;;;4992588;28;20483;-64
2021/05/03 08:12:40;;;;;;;4.95;2.88;;;15.30;54.70;;;;;;4993665;28;20023;-64
2021/05/03 08:15:12;;;;;;;3.78;3.05;;;15.30;54.70;;;;;;4993783;28;20030;-64
2021/05/03 08:17:39;;;;;;;5.55;3.00;;;15.40;54.70;;;;;;4993812;28;20026;-64
2021/05/03 08:20:06;;;;;;;4.07;2.78;;;15.50;54.70;;;;;;4993713;28;20040;-64
2021/05/03 08:22:32;;;;;;;4.00;2.50;;;15.50;54.70;;;;;;4976117;28;20034;-65
2021/05/03 08:24:57;;;;;;;4.88;2.20;;;15.50;55.30;;;;;;4992258;28;20019;-65
2021/05/03 08:27:23;;;;;;;5.68;2.80;;;15.60;55.40;;;;;;4993502;28;20037;-66
2021/05/03 08:29:48;;;;;;;6.32;2.63;;;15.60;55.20;;;;;;4992619;28;20029;-67
2021/05/03 08:32:14;;;;;;;5.40;2.47;;;15.60;55.10;;;;;;4994151;28;20070;-67
2021/05/03 08:34:40;;;;;;;2.65;1.95;;;15.80;55.20;;;;;;4993549;28;20026;-66
2021/05/03 08:37:05;;;;;;;4.10;2.42;;;15.50;55.00;;;;;;4993930;28;20030;-65
2021/05/03 08:39:31;;;;;;;7.00;2.53;;;15.90;55.00;;;;;;4992176;28;20034;-66
2021/05/03 08:41:59;;;;;;;4.70;2.30;;;16.00;55.10;;;;;;4992873;28;20053;-67
2021/05/03 08:44:27;;;;;;;3.78;2.45;;;16.00;54.80;;;;;;4993119;28;20080;-67
2021/05/03 08:46:53;;;;;;;7.57;2.33;;;16.10;54.60;;;;;;4993351;28;20385;-66
2021/05/03 08:49:29;;;;;;;4.88;2.00;;;16.30;54.70;;;;;;4993367;28;20126;-65
2021/05/03 08:52:11;;;;;;;3.28;1.92;;;16.10;54.40;;;;;;4993247;28;20494;-65
2021/05/03 08:54:42;;;;;;;4.75;2.53;;;16.90;54.60;;;;;;4992041;28;20394;-66
2021/05/03 08:57:08;;;;;;;;;;;16.40;54.30;;;;;;4993282;28;20025;-66
2021/05/03 08:59:36;;;;;;;3.45;1.85;;;16.60;54.20;;;;;;4975779;28;19921;-65
2021/05/03 09:02:07;;;;;;;4.30;1.95;;;16.70;54.30;;;;;;4993063;28;20022;-65
2021/05/03 09:04:33;;;;;;;5.90;2.05;;;16.80;54.30;;;;;;4975855;28;20060;-66
2021/05/03 09:07:05;;;;;;;3.22;1.88;;;16.80;54.10;;;;;;4991802;28;20022;-65
2021/05/03 09:09:35;;;;;;;3.90;1.60;;;16.90;54.00;;;;;;4993016;28;20519;-66
2021/05/03 09:12:13;;;;;;;5.80;1.67;;;16.90;54.00;;;;;;4993057;28;20100;-65
2021/05/03 09:14:59;;;;;;;4.82;1.90;;;17.00;54.10;;;;;;4992953;28;20125;-64
2021/05/03 09:17:29;;;;;;;3.05;1.98;;;16.90;53.90;;;;;;4992810;28;20030;-64
2021/05/03 09:19:57;;;;;;;4.43;2.20;;;17.00;53.90;;;;;;4992861;28;20034;-64
2021/05/03 09:22:31;;;;;;;2.38;1.70;;;17.00;53.80;;;;;;4992850;28;20018;-64
2021/05/03 09:25:14;;;;;;;3.85;1.58;;;17.00;53.80;;;;;;4992841;28;20034;-64
2021/05/03 09:27:40;;;;;;;2.88;2.22;;;17.00;53.80;;;;;;4993071;28;20030;-64
2021/05/03 09:30:06;;;;;;;2.15;1.80;;;17.00;53.90;;;;;;4993021;28;20029;-65
2021/05/03 09:32:32;;;;;;;2.78;1.85;;;17.00;54.00;;;;;;4993096;28;20414;-65
2021/05/03 09:34:58;;;;;;;2.05;1.90;;;16.90;54.10;;;;;;4992751;28;20076;-66
2021/05/03 09:37:38;;;;;;;1.98;1.67;;;16.90;54.00;;;;;;4974981;28;20069;-66
2021/05/03 09:40:12;;;;;;;6.80;1.60;;;16.80;53.90;;;;;;4992680;28;20061;-66
2021/05/03 09:42:49;;;;;;;2.53;1.73;;;17.00;54.00;;;;;;4991474;28;20019;-62
2021/05/03 09:45:17;;;;;;;3.70;2.03;;;16.90;53.90;;;;;;4993027;28;20038;-66
2021/05/03 09:47:44;;;;;;;2.10;1.67;;;16.80;53.80;;;;;;4992540;28;20046;-66
2021/05/03 09:50:13;;;;;;;6.35;2.08;;;17.00;53.90;;;;;;4974980;28;20037;-66
2021/05/03 09:52:39;;;;;;;5.60;1.92;;;17.00;53.90;;;;;;4992476;28;20030;-66
2021/05/03 09:55:32;;;;;;;2.63;1.30;;;17.00;53.90;;;;;;4995842;28;20038;-66
2021/05/03 09:58:08;;;;;;;1.70;1.60;;;17.00;77.10;;;;;;4996036;28;20475;-66
2021/05/03 10:00:36;;;;;;;2.75;1.83;;;17.00;54.50;;;;;;4995810;28;20487;-66
2021/05/03 10:03:45;;;;;;;4.13;2.20;;;17.00;53.80;;;;;;4995842;28;20054;-66
2021/05/03 10:06:20;;;;;;;1.85;1.40;;;16.90;53.80;;;;;;4994894;28;20046;-67
2021/05/03 10:08:49;;;;;;;2.72;1.55;;;16.90;53.90;;;;;;4978608;28;20152;-67
2021/05/03 10:11:17;;;;;;;2.03;1.75;;;16.90;53.90;;;;;;4995451;28;20046;-66
2021/05/03 10:13:45;;;;;;;3.85;1.80;;;16.70;53.80;;;;;;4978194;28;20030;-66
2021/05/03 10:16:11;;;;;;;2.47;1.40;;;17.10;54.60;;;;;;4978005;28;20471;-67
2021/05/03 10:18:41;;;;;;;4.40;1.48;;;16.70;53.90;;;;;;4995782;28;20077;-66
2021/05/03 10:21:09;;;;;;;2.03;1.80;;;16.80;54.10;;;;;;4995761;28;20022;-66
2021/05/03 10:23:36;;;;;;;4.72;1.73;;;16.80;55.30;;;;;;4978342;28;20053;-66
2021/05/03 10:26:02;;;;;;;2.28;1.58;;;16.80;55.40;;;;;;4995809;28;20026;-66
2021/05/03 10:28:28;;;;;;;2.85;1.48;;;16.70;55.70;;;;;;4995901;28;20402;-66
2021/05/03 10:30:58;;;;;;;2.70;1.60;;;16.50;55.60;;;;;;4995508;28;20506;-66
2021/05/03 10:33:35;;;;;;;1.92;1.67;;;16.50;55.70;;;;;;4995681;28;20030;-66
2021/05/03 10:36:02;;;;;;;5.47;1.60;;;16.70;56.30;;;;;;4995684;28;20068;-66
2021/05/03 10:38:27;;;;;;;3.25;1.48;;;16.70;56.80;;;;;;4995669;28;20058;-67
2021/05/03 10:40:54;;;;;;;3.03;1.67;;;16.70;56.80;;;;;;4995155;28;20487;-66
2021/05/03 10:43:23;;;;;;;2.47;1.48;;;16.60;57.10;;;;;;4995592;28;20035;-66
2021/05/03 10:48:53;;;;;;;2.63;1.70;;;16.70;57.60;;;;;;4995644;28;20047;-66
2021/05/03 10:54:43;;;;;;;1.88;1.73;;;16.80;57.80;;;;;;4972808;28;20093;-67
2021/05/03 10:57:29;;;;;;;3.00;1.80;;;17.20;58.10;;;;;;4977795;28;20022;-66
2021/05/03 10:59:58;;;;;;;1.92;1.60;;;16.70;57.90;;;;;;4994904;28;20097;-66
2021/05/03 11:02:25;;;;;;;2.40;1.65;;;16.40;58.00;;;;;;4995202;28;20038;-66
2021/05/03 11:05:26;;;;;;;2.25;1.80;;;16.70;58.20;;;;;;4994080;28;20118;-67
2021/05/03 11:08:04;;;;;;;3.28;1.27;;;16.70;58.50;;;;;;4995032;28;20026;-66
2021/05/03 11:10:57;;;;;;;1.50;1.40;;;16.70;58.50;;;;;;4995024;28;20395;-66
2021/05/03 11:13:38;;;;;;;1.67;1.58;;;16.70;58.60;;;;;;4994972;28;20026;-66
2021/05/03 11:16:26;;;;;;;1.40;1.30;;;16.70;58.60;;;;;;4995205;28;20503;-66
2021/05/03 11:18:53;;;;;;;3.00;1.50;;;16.70;58.60;;;;;;4994598;28;20027;-66
2021/05/03 11:21:19;;;;;;;2.15;1.40;;;16.70;58.90;;;;;;4994781;28;20136;-66
2021/05/03 11:23:46;;;;;;;2.45;1.40;;;16.60;58.80;;;;;;4995010;28;20014;-67
2021/05/03 11:26:34;;;;;;;1.85;1.48;;;16.60;58.80;;;;;;4994634;28;20072;-66
2021/05/03 11:29:09;;;;;;;4.10;1.58;;;16.60;59.00;;;;;;4994721;28;20063;-66
2021/05/03 11:31:35;;;;;;;1.70;1.60;;;16.60;59.00;;;;;;4994609;28;20281;-66
2021/05/03 11:34:10;;;;;;;1.38;1.25;;;16.50;59.10;;;;;;4994714;28;20030;-66
2021/05/03 11:36:40;;;;;;;1.48;1.35;;;16.60;59.30;;;;;;4994584;28;20468;-65
2021/05/03 11:39:24;;;;;;;;;;;16.50;59.30;;;;;;4994827;28;20026;-66
2021/05/03 11:42:24;;;;;;;3.80;1.63;;;16.50;59.50;;;;;;4977050;28;19906;-66
2021/05/03 11:44:55;;;;;;;3.60;1.65;;;16.60;59.20;;;;;;4994156;28;20061;-66
2021/05/03 11:47:38;;;;;;;3.00;1.52;;;16.40;59.30;;;;;;4994407;28;20558;-66
2021/05/03 11:50:04;;;;;;;1.60;1.50;;;16.70;59.70;;;;;;4994320;28;20042;-66
2021/05/03 11:52:35;;;;;;;1.70;1.42;;;16.80;59.80;;;;;;4994686;28;20019;-66
2021/05/03 11:55:08;;;;;;;2.05;1.75;;;16.90;59.50;;;;;;4994604;28;20022;-65
2021/05/03 11:57:38;;;;;;;4.22;1.45;;;16.90;59.30;;;;;;4993889;28;20029;-65
2021/05/03 12:00:07;;;;;;;3.05;1.50;;;16.70;59.40;;;;;;4994274;28;20030;-65
2021/05/03 12:02:32;;;;;;;1.60;1.50;;;17.10;59.30;;;;;;4994049;28;20018;-65
2021/05/03 12:04:58;;;;;;;2.03;1.40;;;16.90;59.20;;;;;;4992863;28;20049;-65
2021/05/03 12:07:32;;;;;;;1.95;1.30;;;17.20;59.10;;;;;;4993996;28;20026;-65
2021/05/03 12:10:01;;;;;;;2.50;1.33;;;17.20;59.00;;;;;;4994125;28;20034;-66
2021/05/03 12:12:39;;;;;;;2.38;1.45;;;17.30;58.70;;;;;;4993985;28;20030;-63
2021/05/03 12:15:07;;;;;;;2.15;1.25;;;17.30;58.70;;;;;;4993625;28;20058;-65
2021/05/03 12:17:33;;;;;;;1.55;1.45;;;17.40;58.80;;;;;;4993700;28;20037;-65
2021/05/03 12:20:06;;;;;;;1.50;1.40;;;17.50;59.00;;;;;;4993843;28;20506;-65
2021/05/03 12:22:33;;;;;;;2.55;1.30;;;17.50;58.80;;;;;;4993970;28;20109;-65
2021/05/03 12:25:02;;;;;;;1.40;1.02;;;17.50;58.60;;;;;;4994053;28;20026;-66
2021/05/03 12:27:30;;;;;;;1.15;1.05;;;17.60;58.60;;;;;;4993945;28;20018;-66
2021/05/03 12:29:56;;;;;;;1.35;1.23;;;17.30;58.30;;;;;;4993988;28;20052;-65
2021/05/03 12:32:21;;;;;;;1.98;1.42;;;17.60;58.60;;;;;;4994052;28;20462;-64
2021/05/03 12:34:49;;;;;;;1.50;1.20;;;17.70;58.50;;;;;;4993842;28;20023;-65
2021/05/03 12:37:24;;;;;;;1.90;1.10;;;18.20;58.50;;;;;;4993611;28;20462;-64
2021/05/03 12:40:17;;;;;;;2.38;1.20;;;17.70;58.30;;;;;;4993930;28;20022;-64
2021/05/03 12:42:46;;;;;;;3.30;1.20;;;17.70;58.40;;;;;;4987449;28;20065;-65
2021/05/03 12:45:55;;;;;;;0.83;0.83;;;17.80;58.10;;;;;;4993272;28;20030;-65
2021/05/03 12:53:54;;;;;;;1.63;1.15;;;17.80;58.10;;;;;;4993598;28;20284;-64
2021/05/03 12:56:26;;;;;;;1.30;1.20;;;17.70;80.80;;;;;;4993600;28;20034;-65
2021/05/03 12:59:00;;;;;;;2.70;0.98;;;18.10;82.20;;;;;;4993049;28;20022;-64
2021/05/03 13:04:51;;;;;;;1.30;1.13;;;17.70;58.20;;;;;;4992993;28;20064;-65
2021/05/03 13:07:40;;;;;;;1.75;0.95;;;17.80;57.80;;;;;;4992926;28;20018;-64
2021/05/03 13:29:44;;;;;;;0.98;0.93;;;17.70;58.30;;;;;;4995597;28;20129;-63
2021/05/03 13:32:19;;;;;;;1.30;1.20;;;17.60;57.80;;;;;;4996723;28;20026;-63
2021/05/03 13:34:46;;;;;;;1.40;1.30;;;17.60;58.00;;;;;;4996974;28;20033;-63
2021/05/03 13:37:13;;;;;;;6.40;1.08;;;17.50;58.10;;;;;;4996922;28;20029;-63
2021/05/03 13:39:38;;;;;;;1.13;0.88;;;17.40;57.90;;;;;;4996957;28;20018;-63
2021/05/03 13:42:08;;;;;;;1.30;1.20;;;17.50;58.10;;;;;;4996693;28;20034;-64
2021/05/03 13:44:34;;;;;;;1.33;1.23;;;17.40;57.70;;;;;;4996633;28;20478;-63
2021/05/03 13:47:00;;;;;;;1.10;1.00;;;17.40;57.60;;;;;;4996575;28;20026;-63